Washington, District of Columbia
Current Conditions -  °F | °C
As of 7:52 AM on Monday 22 Dec 2014 (Local Time) from KDCA Reporting Station
Overcast Overcast  
Wind Chill: 30°   Ceiling: 4300
Heat Index: 35°   Visibility: 7mi
Dew Point: 25°   Wind: 6mph
Humidity: 67%   Direction: 30°NNE
Pressure: 30.31"   Gusts: NA
Location:  38.89°N, 77.03°W
Report Text: KDCA 221252Z 03005KT 7SM OVC043 02/M04 A3031 RMK AO2 SLP262 T00171039
Loading
Personal Weather Stations






























Interactive Weather Map New forecast layout! Learn more

10-Day Weather Forecast

Advertisements
Track Severe Weather on mobile